Time;durP1;ratioP1;P1;durP2;ratioP2;P2;SDS_P1;SDS_P2;PMS_P1;PMS_P2;Temp;Humidity;BMP_temperature;BMP_pressure;BME280_temperature;BME280_humidity;BME280_pressure;Samples;Min_cycle;Max_cycle;Signal;HPM_P1;HPM_P2
2022/04/22 00:01:13;;;;;;;11.43;10.00;;;8.50;99.90;;;;;;5077493;28;20508;-56
2022/04/22 00:03:46;;;;;;;11.03;9.80;;;8.50;99.90;;;;;;5075347;28;20554;-56
2022/04/22 00:06:13;;;;;;;11.80;9.67;;;8.50;99.90;;;;;;5077393;28;20468;-55
2022/04/22 00:08:43;;;;;;;11.43;9.80;;;8.50;99.90;;;;;;5077030;28;20941;-57
2022/04/22 00:14:00;;;;;;;11.50;10.40;;;8.50;99.90;;;;;;5075850;28;20449;-55
2022/04/22 00:16:30;;;;;;;11.43;10.23;;;8.40;99.90;;;;;;5076747;28;20516;-56
2022/04/22 00:19:02;;;;;;;10.30;9.30;;;8.40;99.90;;;;;;5076093;28;20902;-56
2022/04/22 00:21:33;;;;;;;11.70;10.50;;;8.40;99.90;;;;;;5076808;28;20514;-54
2022/04/22 00:24:00;;;;;;;11.50;10.30;;;8.40;99.90;;;;;;5076085;28;20541;-56
2022/04/22 00:26:30;;;;;;;12.37;11.20;;;8.30;99.90;;;;;;5077125;28;20769;-55
2022/04/22 00:28:57;;;;;;;12.13;10.90;;;8.30;99.90;;;;;;5076262;28;20461;-54
2022/04/22 00:31:26;;;;;;;12.77;11.23;;;8.30;99.90;;;;;;5076466;28;20553;-54
2022/04/22 00:33:55;;;;;;;11.80;10.60;;;8.20;1.00;;;;;;5075689;28;20469;-55
2022/04/22 00:36:25;;;;;;;11.40;10.30;;;8.20;1.00;;;;;;5076515;28;20520;-56
2022/04/22 00:38:59;;;;;;;11.53;10.33;;;8.20;1.00;;;;;;5076618;28;20511;-56
2022/04/22 00:41:30;;;;;;;12.03;10.50;;;8.20;1.00;;;;;;5075867;28;20461;-57
2022/04/22 00:43:57;;;;;;;11.70;10.57;;;8.10;1.00;;;;;;5075782;28;20930;-54
2022/04/22 00:46:26;;;;;;;11.50;10.37;;;8.00;1.00;;;;;;5076501;28;20944;-55
2022/04/22 00:48:57;;;;;;;11.43;10.23;;;8.00;1.00;;;;;;5076647;28;20489;-56
2022/04/22 00:51:28;;;;;;;11.17;10.17;;;8.00;1.00;;;;;;5077068;28;20850;-56
2022/04/22 00:53:56;;;;;;;12.27;10.70;;;8.00;1.00;;;;;;5080283;28;20438;-53
2022/04/22 00:56:24;;;;;;;12.07;10.87;;;8.00;50.00;;;;;;5079454;28;20485;-56
2022/04/22 00:58:53;;;;;;;10.67;9.53;;;8.00;1.00;;;;;;5080369;28;20465;-54
2022/04/22 01:01:20;;;;;;;13.00;11.70;;;8.00;1.00;;;;;;5078863;28;20536;-56
2022/04/22 01:12:07;;;;;;;11.20;10.07;;;7.90;1.00;;;;;;5079331;28;20476;-55
2022/04/22 01:14:34;;;;;;;12.03;10.40;;;7.90;1.00;;;;;;5080609;28;20716;-56
2022/04/22 01:17:04;;;;;;;10.73;9.77;;;7.90;1.00;;;;;;5078831;28;20827;-56
2022/04/22 01:19:31;;;;;;;11.90;10.70;;;7.90;11.30;;;;;;5080095;28;20943;-56
2022/04/22 01:22:00;;;;;;;12.97;10.73;;;7.90;1.00;;;;;;5078191;28;20548;-55
2022/04/22 01:24:27;;;;;;;12.90;11.17;;;7.90;1.00;;;;;;5080015;28;20510;-56
2022/04/22 01:26:59;;;;;;;15.23;11.97;;;7.90;1.00;;;;;;5079195;28;20450;-56
2022/04/22 01:29:29;;;;;;;12.40;10.33;;;7.90;1.00;;;;;;5080082;28;20889;-53
2022/04/22 01:31:56;;;;;;;12.90;11.00;;;7.90;1.00;;;;;;5079064;28;20525;-56
2022/04/22 01:34:29;;;;;;;12.57;10.63;;;7.90;1.00;;;;;;5080165;28;20530;-57
2022/04/22 01:36:56;;;;;;;12.80;11.50;;;7.90;1.00;;;;;;5079248;28;20544;-56
2022/04/22 01:39:25;;;;;;;12.80;10.90;;;7.90;1.00;;;;;;5079390;28;20519;-53
2022/04/22 01:41:52;;;;;;;13.70;10.10;;;7.90;1.00;;;;;;5079180;28;20552;-55
2022/04/22 01:44:19;;;;;;;10.90;9.77;;;7.90;1.00;;;;;;5078746;28;20924;-55
2022/04/22 01:46:49;;;;;;;13.30;11.90;;;7.90;1.00;;;;;;5079532;28;20957;-56
2022/04/22 01:49:21;;;;;;;13.27;11.87;;;7.80;1.00;;;;;;5079493;28;20811;-54
2022/04/22 01:51:50;;;;;;;11.70;10.40;;;7.80;1.00;;;;;;5077954;28;20465;-56
2022/04/22 01:54:18;;;;;;;14.33;11.47;;;7.90;40.20;;;;;;5078952;28;20957;-55
2022/04/22 01:56:47;;;;;;;13.00;11.80;;;7.80;62.30;;;;;;5079062;28;20566;-56
2022/04/22 01:59:17;;;;;;;12.70;11.40;;;7.80;99.90;;;;;;5079288;28;20469;-53
2022/04/22 02:01:46;;;;;;;12.93;11.60;;;7.80;99.90;;;;;;5077878;28;20461;-56
2022/04/22 02:04:22;;;;;;;13.07;11.70;;;7.80;61.80;;;;;;5078238;28;20528;-56
2022/04/22 02:06:53;;;;;;;14.20;12.80;;;7.80;99.90;;;;;;5078782;28;20461;-53
2022/04/22 02:09:20;;;;;;;15.83;13.67;;;7.80;99.90;;;;;;5079131;28;20764;-56
2022/04/22 02:11:56;;;;;;;15.07;12.40;;;7.70;99.90;;;;;;5078218;28;20883;-54
2022/04/22 02:14:28;;;;;;;13.60;11.30;;;7.80;99.90;;;;;;5078207;28;20469;-52
2022/04/22 02:16:55;;;;;;;13.93;12.53;;;7.80;99.90;;;;;;5078314;28;20496;-56
2022/04/22 02:19:25;;;;;;;16.23;13.20;;;7.70;99.90;;;;;;5078240;28;20802;-56
2022/04/22 02:21:55;;;;;;;13.97;12.50;;;7.70;99.90;;;;;;5078437;28;20461;-54
2022/04/22 02:24:25;;;;;;;14.10;12.57;;;7.60;12.70;;;;;;5079135;28;20461;-53
2022/04/22 02:29:51;;;;;;;17.70;14.33;;;7.60;99.90;;;;;;5078630;28;20492;-56
2022/04/22 02:32:18;;;;;;;16.00;13.90;;;7.60;99.90;;;;;;5077948;28;20568;-54
2022/04/22 02:34:45;;;;;;;16.37;14.67;;;7.60;99.90;;;;;;5077368;28;20523;-54
2022/04/22 02:37:12;;;;;;;16.33;14.13;;;7.60;99.90;;;;;;5077249;28;20489;-56
2022/04/22 02:39:44;;;;;;;14.77;13.20;;;7.70;99.90;;;;;;5077847;28;20466;-56
2022/04/22 02:47:41;;;;;;;15.40;13.80;;;7.60;99.90;;;;;;5077130;28;20484;-55
2022/04/22 02:50:09;;;;;;;17.00;14.80;;;7.60;99.90;;;;;;5078481;28;20463;-56
2022/04/22 02:52:36;;;;;;;19.20;14.73;;;7.60;99.90;;;;;;5077188;28;20512;-56
2022/04/22 02:55:07;;;;;;;19.43;14.10;;;7.50;99.90;;;;;;5077851;28;20431;-56
2022/04/22 02:57:36;;;;;;;19.30;13.90;;;7.40;99.90;;;;;;5076819;28;20481;-55
2022/04/22 03:00:07;;;;;;;17.60;15.70;;;7.40;1.00;;;;;;5077612;28;20461;-55
2022/04/22 03:02:34;;;;;;;16.97;15.13;;;7.50;99.90;;;;;;5078060;28;20515;-57
2022/04/22 03:05:01;;;;;;;16.57;14.43;;;7.50;1.00;;;;;;5077335;28;20469;-55
2022/04/22 03:07:28;;;;;;;22.00;15.80;;;7.40;99.90;;;;;;5076101;28;20817;-55
2022/04/22 03:10:01;;;;;;;17.97;15.80;;;7.40;1.00;;;;;;5077991;28;20440;-56
2022/04/22 03:12:28;;;;;;;19.37;16.70;;;7.40;99.90;;;;;;5077694;28;20462;-57
2022/04/22 03:14:58;;;;;;;21.50;15.70;;;7.40;37.80;;;;;;5076813;28;20474;-55
2022/04/22 03:17:28;;;;;;;18.03;15.33;;;7.40;1.00;;;;;;5077196;28;20493;-57
2022/04/22 03:19:57;;;;;;;19.70;17.10;;;7.30;89.10;;;;;;5076821;28;20461;-54
2022/04/22 03:22:26;;;;;;;19.60;16.60;;;7.30;1.00;;;;;;5077687;28;20925;-56
2022/04/22 03:24:53;;;;;;;18.67;15.20;;;7.30;99.90;;;;;;5077302;28;20546;-57
2022/04/22 03:27:26;;;;;;;21.80;16.17;;;7.30;77.70;;;;;;5077183;28;20879;-54
2022/04/22 03:29:57;;;;;;;19.60;16.50;;;7.40;1.00;;;;;;5076430;28;20944;-57
2022/04/22 03:32:25;;;;;;;23.67;18.77;;;7.30;1.00;;;;;;5077268;28;20465;-56
2022/04/22 03:34:52;;;;;;;23.33;18.97;;;7.30;99.90;;;;;;5077095;28;20883;-58
2022/04/22 03:37:19;;;;;;;24.60;20.37;;;7.30;99.90;;;;;;5077114;28;20500;-54
2022/04/22 03:39:46;;;;;;;24.50;17.47;;;7.30;1.00;;;;;;5076459;28;20485;-57
2022/04/22 03:42:13;;;;;;;20.13;17.60;;;7.20;1.00;;;;;;5077428;28;20496;-57
2022/04/22 03:44:46;;;;;;;23.63;18.77;;;7.20;1.00;;;;;;5076662;28;20539;-57
2022/04/22 03:47:15;;;;;;;26.10;18.80;;;7.20;99.90;;;;;;5076062;28;20489;-57
2022/04/22 03:49:44;;;;;;;24.07;19.17;;;7.20;1.00;;;;;;5077085;28;20845;-56
2022/04/22 03:52:14;;;;;;;22.03;18.83;;;7.20;1.00;;;;;;5077138;28;20492;-56
2022/04/22 03:54:43;;;;;;;25.00;19.77;;;7.20;1.00;;;;;;5076769;28;20455;-55
2022/04/22 03:59:56;;;;;;;28.03;19.73;;;7.10;99.90;;;;;;5042292;28;20471;-56
2022/04/22 04:02:25;;;;;;;31.83;21.63;;;7.20;1.00;;;;;;5076745;28;20523;-56
2022/04/22 04:04:56;;;;;;;25.40;19.87;;;7.20;1.00;;;;;;5077615;28;20493;-56
2022/04/22 04:07:25;;;;;;;26.47;19.73;;;7.30;99.90;;;;;;5075930;28;20460;-56
2022/04/22 04:18:13;;;;;;;29.10;21.63;;;7.30;1.00;;;;;;5074608;28;20484;-56
2022/04/22 04:23:31;;;;;;;28.87;21.47;;;7.20;1.00;;;;;;5076096;28;20928;-57
2022/04/22 04:26:01;;;;;;;30.10;23.17;;;7.30;1.00;;;;;;5077539;28;20467;-56
2022/04/22 04:28:33;;;;;;;28.03;22.73;;;7.30;1.00;;;;;;5080366;28;20470;-55
2022/04/22 04:31:03;;;;;;;26.27;22.93;;;7.30;1.00;;;;;;5080755;28;20522;-56
2022/04/22 04:33:32;;;;;;;29.93;22.07;;;7.30;1.00;;;;;;5080718;28;20922;-57
2022/04/22 04:35:59;;;;;;;30.80;21.87;;;7.20;37.40;;;;;;5079783;28;20570;-55
2022/04/22 04:38:29;;;;;;;34.83;21.80;;;7.30;99.90;;;;;;5080008;28;20488;-56
2022/04/22 04:40:56;;;;;;;26.93;22.37;;;7.30;99.90;;;;;;5080163;28;20523;-57
2022/04/22 04:43:23;;;;;;;29.23;24.07;;;7.30;91.90;;;;;;5079952;28;20521;-54
2022/04/22 04:45:51;;;;;;;30.20;22.80;;;7.30;49.30;;;;;;5061083;28;20557;-56
2022/04/22 04:48:21;;;;;;;25.10;21.47;;;7.30;1.00;;;;;;5066389;28;20518;-56
2022/04/22 04:50:54;;;;;;;30.17;23.70;;;7.30;1.00;;;;;;5079856;28;20457;-57
2022/04/22 04:53:23;;;;;;;29.53;21.70;;;7.30;1.00;;;;;;5080665;28;20987;-56
2022/04/22 04:55:52;;;;;;;30.60;22.40;;;7.30;1.00;;;;;;5080326;28;20465;-55
2022/04/22 04:58:30;;;;;;;25.63;21.30;;;7.30;1.00;;;;;;5079764;28;20751;-57
2022/04/22 05:01:00;;;;;;;29.13;23.80;;;7.30;1.00;;;;;;5078975;28;20483;-56
2022/04/22 05:03:27;;;;;;;28.60;22.60;;;7.40;1.00;;;;;;5079930;28;20510;-56
2022/04/22 05:05:57;;;;;;;30.97;23.10;;;7.40;1.00;;;;;;5080525;28;20465;-53
2022/04/22 05:08:25;;;;;;;28.33;22.13;;;7.40;1.00;;;;;;5079701;28;20496;-58
2022/04/22 05:11:01;;;;;;;32.83;24.13;;;7.40;1.00;;;;;;5079007;28;20515;-55
2022/04/22 05:13:30;;;;;;;30.07;23.17;;;7.40;1.00;;;;;;5080122;28;20457;-56
2022/04/22 05:15:57;;;;;;;30.10;21.50;;;7.40;1.00;;;;;;5080080;28;20457;-53
2022/04/22 05:18:25;;;;;;;31.63;24.40;;;7.50;1.00;;;;;;5079861;28;20496;-54
2022/04/22 05:20:56;;;;;;;28.43;23.37;;;7.60;28.50;;;;;;5079631;28;20496;-57
2022/04/22 05:23:26;;;;;;;28.33;22.73;;;7.70;25.90;;;;;;5079093;28;20485;-54
2022/04/22 05:25:55;;;;;;;31.20;22.23;;;7.80;1.00;;;;;;5080308;28;20507;-56
2022/04/22 05:28:22;;;;;;;25.63;20.60;;;7.90;1.00;;;;;;5079963;28;20514;-54
2022/04/22 05:33:37;;;;;;;30.97;22.20;;;8.00;99.90;;;;;;5079196;28;20920;-58
2022/04/22 05:36:08;;;;;;;28.07;22.73;;;8.10;1.00;;;;;;5079924;28;20457;-58
2022/04/22 05:38:38;;;;;;;28.70;22.50;;;8.30;99.90;;;;;;5078307;28;20817;-56
2022/04/22 05:41:05;;;;;;;30.17;23.50;;;8.40;99.90;;;;;;5078514;28;20461;-58
2022/04/22 05:43:41;;;;;;;26.50;20.47;;;8.40;99.90;;;;;;5079395;28;20509;-58
2022/04/22 05:46:09;;;;;;;30.13;22.60;;;8.50;1.00;;;;;;5078528;28;20515;-58
2022/04/22 05:48:39;;;;;;;26.73;22.20;;;8.60;99.90;;;;;;5079052;28;20531;-58
2022/04/22 05:51:08;;;;;;;26.40;21.17;;;8.60;99.90;;;;;;5078976;28;20814;-58
2022/04/22 05:53:40;;;;;;;27.93;23.30;;;8.70;47.50;;;;;;5079609;28;20916;-58
2022/04/22 05:56:07;;;;;;;30.43;22.67;;;8.70;1.00;;;;;;5078200;28;20779;-58
2022/04/22 05:58:36;;;;;;;30.27;23.17;;;8.70;1.00;;;;;;5078914;28;20489;-58
2022/04/22 06:01:03;;;;;;;27.63;24.27;;;8.80;1.00;;;;;;5078600;28;20824;-58
2022/04/22 06:03:33;;;;;;;24.57;21.73;;;8.80;1.00;;;;;;5079426;28;20515;-59
2022/04/22 06:06:00;;;;;;;27.93;23.10;;;8.80;1.00;;;;;;5078234;28;20522;-58
2022/04/22 06:11:16;;;;;;;30.03;23.27;;;8.90;1.00;;;;;;5078261;28;20457;-59
2022/04/22 06:13:47;;;;;;;29.27;26.10;;;9.00;1.00;;;;;;5079212;28;20493;-58
2022/04/22 06:16:14;;;;;;;31.17;25.53;;;9.10;1.00;;;;;;5077777;28;20461;-58
2022/04/22 06:18:43;;;;;;;30.00;24.37;;;9.10;1.00;;;;;;5076735;28;20514;-59
2022/04/22 06:21:15;;;;;;;28.87;23.43;;;9.10;1.00;;;;;;5077809;28;20523;-58
2022/04/22 06:23:46;;;;;;;29.37;24.10;;;9.20;1.00;;;;;;5077159;28;20468;-58
2022/04/22 06:26:18;;;;;;;28.57;25.47;;;9.30;1.00;;;;;;5076682;28;20489;-58
2022/04/22 06:28:48;;;;;;;31.77;25.50;;;9.30;1.00;;;;;;5077687;28;20882;-58
2022/04/22 06:31:16;;;;;;;27.50;23.53;;;9.30;1.00;;;;;;5076824;28;20462;-58
2022/04/22 06:33:43;;;;;;;28.13;24.80;;;9.40;99.90;;;;;;5077597;28;20454;-58
2022/04/22 06:36:15;;;;;;;29.87;23.60;;;9.50;99.90;;;;;;5077276;28;20899;-59
2022/04/22 06:38:54;;;;;;;27.00;22.67;;;9.50;99.90;;;;;;5076315;28;20528;-55
2022/04/22 06:46:57;;;;;;;26.17;23.33;;;9.70;99.90;;;;;;5076430;28;20544;-59
2022/04/22 06:49:25;;;;;;;28.23;23.67;;;9.80;99.90;;;;;;5077066;28;20767;-58
2022/04/22 06:51:54;;;;;;;27.17;21.40;;;9.90;99.90;;;;;;5078034;28;20836;-56
2022/04/22 06:54:23;;;;;;;25.07;22.43;;;10.10;89.60;;;;;;5077623;28;20932;-57
2022/04/22 06:56:53;;;;;;;26.50;23.00;;;10.20;8.00;;;;;;5076762;28;20511;-57
2022/04/22 06:59:29;;;;;;;25.40;22.70;;;10.50;13.60;;;;;;5076768;28;20929;-57
2022/04/22 07:02:00;;;;;;;25.03;22.43;;;10.60;1.00;;;;;;5075955;28;20532;-58
2022/04/22 07:04:30;;;;;;;24.50;21.93;;;11.00;1.00;;;;;;5074845;28;20497;-56
2022/04/22 07:06:57;;;;;;;24.73;21.20;;;11.20;1.00;;;;;;5075860;28;20457;-60
2022/04/22 07:09:35;;;;;;;23.80;21.60;;;11.40;1.00;;;;;;5075705;28;20465;-59
2022/04/22 07:12:04;;;;;;;21.30;19.10;;;11.40;1.00;;;;;;5074070;28;20507;-59
2022/04/22 07:14:36;;;;;;;21.20;18.70;;;11.50;1.00;;;;;;5074653;28;20967;-60
2022/04/22 07:17:09;;;;;;;19.60;17.60;;;11.70;1.00;;;;;;5076474;28;20457;-59
2022/04/22 07:19:43;;;;;;;21.43;17.80;;;12.20;1.00;;;;;;5075984;28;20492;-60
2022/04/22 07:22:11;;;;;;;19.17;17.23;;;12.50;1.00;;;;;;5076806;28;20462;-58
2022/04/22 07:24:41;;;;;;;18.30;16.50;;;12.60;1.00;;;;;;5075577;28;20526;-57
2022/04/22 07:27:16;;;;;;;19.63;17.70;;;12.50;1.00;;;;;;5076787;28;20881;-58
2022/04/22 07:29:54;;;;;;;18.77;16.77;;;12.60;1.00;;;;;;5077438;28;20457;-57
2022/04/22 07:32:24;;;;;;;19.47;17.43;;;12.30;99.90;;;;;;5077328;28;20461;-57
2022/04/22 07:34:52;;;;;;;17.10;15.40;;;12.10;99.90;;;;;;5076393;28;20465;-57
2022/04/22 07:37:22;;;;;;;16.40;14.80;;;11.80;99.90;;;;;;5077142;28;20519;-58
2022/04/22 07:39:58;;;;;;;18.83;15.70;;;11.90;99.90;;;;;;5077105;28;21008;-57
2022/04/22 07:42:29;;;;;;;14.80;13.17;;;12.00;99.90;;;;;;5076016;28;20564;-58
2022/04/22 07:47:47;;;;;;;16.43;14.80;;;12.20;99.90;;;;;;5062029;28;20440;-58
2022/04/22 07:50:17;;;;;;;14.63;13.20;;;12.30;99.90;;;;;;5076510;28;20913;-57
2022/04/22 07:52:46;;;;;;;17.80;14.60;;;12.30;99.90;;;;;;5075771;28;20478;-57
2022/04/22 07:55:15;;;;;;;16.13;14.33;;;12.00;99.90;;;;;;5076658;28;20552;-58
2022/04/22 07:57:51;;;;;;;15.10;13.70;;;12.00;99.90;;;;;;5074659;28;20859;-54
2022/04/22 08:00:22;;;;;;;16.37;13.87;;;12.10;99.90;;;;;;5073268;28;20551;-57
2022/04/22 08:02:52;;;;;;;14.90;13.40;;;12.10;99.90;;;;;;5077359;28;20491;-58
2022/04/22 08:05:22;;;;;;;15.23;13.83;;;12.10;99.90;;;;;;5075280;28;20457;-57
2022/04/22 08:07:49;;;;;;;16.00;13.90;;;11.80;99.90;;;;;;5072181;28;20503;-57
2022/04/22 08:10:17;;;;;;;14.30;12.90;;;12.00;99.90;;;;;;5075285;28;20457;-58
2022/04/22 08:12:44;;;;;;;15.83;14.27;;;11.90;99.90;;;;;;5074249;28;20496;-57
2022/04/22 08:15:12;;;;;;;16.00;14.40;;;11.90;99.90;;;;;;5076148;28;20495;-57
2022/04/22 08:17:39;;;;;;;16.37;14.67;;;11.80;99.90;;;;;;5075078;28;20552;-56
2022/04/22 08:20:12;;;;;;;14.87;13.20;;;12.00;99.90;;;;;;5069737;28;20493;-57
2022/04/22 08:22:40;;;;;;;14.50;13.00;;;12.10;99.90;;;;;;5073628;28;20931;-57
2022/04/22 08:25:12;;;;;;;15.23;13.63;;;12.30;99.90;;;;;;5073042;28;20473;-57
2022/04/22 08:27:41;;;;;;;15.97;14.37;;;12.30;99.90;;;;;;5073262;28;20460;-56
2022/04/22 08:30:10;;;;;;;15.60;14.10;;;12.50;99.90;;;;;;5074943;28;20814;-58
2022/04/22 08:32:37;;;;;;;15.17;13.67;;;12.60;99.90;;;;;;5071449;28;20481;-57
2022/04/22 08:35:05;;;;;;;14.47;13.07;;;12.60;99.90;;;;;;5068653;28;20837;-57
2022/04/22 08:37:32;;;;;;;14.93;13.43;;;12.50;99.90;;;;;;5056759;28;20539;-57
2022/04/22 08:39:59;;;;;;;16.03;14.27;;;12.60;99.90;;;;;;5060037;28;20512;-57
2022/04/22 08:42:26;;;;;;;14.10;12.80;;;12.70;99.90;;;;;;5071541;28;20465;-57
2022/04/22 08:44:56;;;;;;;17.17;12.70;;;12.50;99.90;;;;;;5074349;28;20465;-57
2022/04/22 08:50:13;;;;;;;15.00;13.07;;;12.40;99.90;;;;;;5074627;28;20432;-57
2022/04/22 08:52:50;;;;;;;15.27;13.77;;;12.30;99.90;;;;;;5075286;28;20878;-57
2022/04/22 08:55:26;;;;;;;13.97;12.67;;;12.20;99.90;;;;;;5075887;28;20461;-58
2022/04/22 08:57:57;;;;;;;13.20;12.00;;;12.20;99.90;;;;;;5076609;28;20457;-57
2022/04/22 09:00:34;;;;;;;16.60;12.60;;;12.30;99.90;;;;;;5076567;28;20500;-57
2022/04/22 09:03:04;;;;;;;13.53;12.13;;;12.40;99.90;;;;;;5076057;28;20508;-58
2022/04/22 09:05:35;;;;;;;13.20;10.77;;;12.40;99.90;;;;;;5055697;28;20466;-58
2022/04/22 09:08:03;;;;;;;11.30;10.20;;;12.50;99.90;;;;;;5062644;28;20461;-57
2022/04/22 09:10:30;;;;;;;11.10;10.00;;;12.60;99.90;;;;;;5076532;28;20886;-58
2022/04/22 09:13:09;;;;;;;11.23;10.13;;;12.80;99.90;;;;;;5078625;28;20909;-59
2022/04/22 09:15:39;;;;;;;10.70;9.37;;;12.90;99.90;;;;;;5079455;28;20465;-59
2022/04/22 09:18:11;;;;;;;11.10;10.10;;;13.10;99.90;;;;;;5079716;28;20465;-59
2022/04/22 09:20:39;;;;;;;10.93;9.83;;;13.20;99.90;;;;;;5079106;28;20993;-60
2022/04/22 09:23:25;;;;;;;10.77;9.67;;;13.30;99.90;;;;;;5080155;28;20979;-60
2022/04/22 09:25:55;;;;;;;10.87;9.77;;;13.40;99.90;;;;;;5079548;28;20464;-58
2022/04/22 09:28:30;;;;;;;11.23;10.10;;;13.60;99.90;;;;;;5080124;28;20467;-59
2022/04/22 09:31:06;;;;;;;10.60;9.47;;;13.70;99.90;;;;;;5079929;28;20807;-58
2022/04/22 09:33:47;;;;;;;10.03;8.30;;;14.00;99.90;;;;;;5080115;28;20472;-59
2022/04/22 09:45:09;;;;;;;9.47;8.20;;;16.40;99.90;;;;;;5078384;28;20943;-60
2022/04/22 09:47:41;;;;;;;7.10;6.40;;;17.40;99.90;;;;;;5078694;28;20518;-60
2022/04/22 09:50:16;;;;;;;7.70;6.97;;;17.90;99.90;;;;;;5079245;28;20496;-61
2022/04/22 09:52:46;;;;;;;7.57;6.37;;;17.90;99.90;;;;;;5079402;28;20568;-59
2022/04/22 09:55:15;;;;;;;8.93;8.00;;;18.00;99.90;;;;;;5079521;28;20520;-59
2022/04/22 09:57:52;;;;;;;9.17;8.40;;;18.00;99.90;;;;;;5078710;28;20465;-58
2022/04/22 10:00:21;;;;;;;11.03;7.60;;;17.90;99.90;;;;;;5078345;28;20511;-59
2022/04/22 10:02:52;;;;;;;9.10;8.20;;;18.50;99.90;;;;;;5079377;28;20992;-57
2022/04/22 10:05:20;;;;;;;9.17;8.20;;;18.80;99.90;;;;;;5079144;28;20465;-58
2022/04/22 10:08:00;;;;;;;8.40;7.60;;;18.90;99.90;;;;;;5078082;28;20465;-58
2022/04/22 10:10:35;;;;;;;8.67;7.13;;;18.10;99.90;;;;;;5077657;28;20471;-58
2022/04/22 10:13:06;;;;;;;8.43;7.73;;;17.30;99.90;;;;;;5079260;28;20543;-58
2022/04/22 10:15:40;;;;;;;9.13;8.23;;;16.60;99.90;;;;;;5079270;28;20461;-57
2022/04/22 10:18:17;;;;;;;8.80;7.97;;;16.10;99.90;;;;;;5078292;28;20546;-59
2022/04/22 10:20:50;;;;;;;9.63;8.63;;;15.80;99.90;;;;;;5081558;28;20510;-58
2022/04/22 10:23:24;;;;;;;8.03;7.23;;;16.30;99.90;;;;;;5077522;28;20465;-56
2022/04/22 10:25:53;;;;;;;8.47;7.77;;;16.50;99.90;;;;;;5089657;28;20472;-56
2022/04/22 10:28:31;;;;;;;8.07;7.23;;;16.40;99.90;;;;;;5080006;28;20543;-53
2022/04/22 10:31:05;;;;;;;8.07;7.37;;;16.20;99.90;;;;;;5073260;28;20497;-57
2022/04/22 10:33:46;;;;;;;9.30;8.50;;;15.90;99.90;;;;;;5067040;28;20478;-57
2022/04/22 10:36:16;;;;;;;8.40;7.70;;;15.90;99.90;;;;;;5072003;28;20463;-57
2022/04/22 10:38:50;;;;;;;10.57;9.47;;;16.10;99.90;;;;;;5076963;28;20775;-56
2022/04/22 10:41:21;;;;;;;9.27;8.47;;;16.20;99.90;;;;;;5078436;28;20886;-55
2022/04/22 10:49:37;;;;;;;10.33;9.40;;;17.50;99.90;;;;;;5074912;28;20471;-56
2022/04/22 10:52:10;;;;;;;11.03;10.13;;;16.70;99.90;;;;;;5077057;28;20462;-57
2022/04/22 10:55:13;;;;;;;10.73;9.73;;;16.50;99.90;;;;;;5077813;28;20507;-56
2022/04/22 10:57:44;;;;;;;9.00;8.20;;;16.10;99.90;;;;;;5074838;28;20461;-57
2022/04/22 11:00:31;;;;;;;10.30;9.30;;;16.30;99.90;;;;;;5074773;28;20559;-58
2022/04/22 11:03:19;;;;;;;8.93;7.90;;;17.60;99.90;;;;;;5076174;28;20460;-57
2022/04/22 11:05:52;;;;;;;8.17;7.47;;;18.60;99.90;;;;;;5078366;28;20889;-57
2022/04/22 11:08:34;;;;;;;9.20;8.20;;;19.60;99.90;;;;;;5077844;28;20980;-58
2022/04/22 11:11:18;;;;;;;8.90;8.10;;;19.80;99.90;;;;;;5077419;28;20489;-58
2022/04/22 11:13:50;;;;;;;7.93;7.33;;;20.60;99.90;;;;;;5076904;28;20744;-58
2022/04/22 11:16:30;;;;;;;9.87;8.97;;;21.10;99.90;;;;;;5077612;28;20886;-58
2022/04/22 11:19:36;;;;;;;9.10;8.20;;;20.60;99.90;;;;;;5077341;28;20461;-59
2022/04/22 11:22:10;;;;;;;10.80;9.17;;;20.30;99.90;;;;;;5058184;28;20467;-57
2022/04/22 11:24:38;;;;;;;8.63;7.87;;;20.50;99.90;;;;;;5068386;28;20485;-57
2022/04/22 11:27:11;;;;;;;9.87;8.97;;;19.90;99.90;;;;;;5078000;28;20457;-59
2022/04/22 11:29:38;;;;;;;10.47;9.40;;;19.50;99.90;;;;;;5077439;28;20543;-60
2022/04/22 11:32:13;;;;;;;9.53;8.60;;;19.10;99.90;;;;;;5077875;28;20464;-58
2022/04/22 11:35:03;;;;;;;9.43;8.53;;;18.30;99.90;;;;;;5076969;28;20444;-59
2022/04/22 11:37:33;;;;;;;10.07;9.27;;;18.00;99.90;;;;;;5077732;28;20463;-59
2022/04/22 11:40:03;;;;;;;8.67;8.07;;;18.50;99.90;;;;;;5076349;28;20606;-59
2022/04/22 11:42:44;;;;;;;9.57;8.87;;;19.40;99.90;;;;;;5077151;28;20493;-60
2022/04/22 11:45:15;;;;;;;8.47;7.77;;;19.50;99.90;;;;;;5076950;28;20492;-60
2022/04/22 11:47:43;;;;;;;12.33;9.50;;;19.90;99.90;;;;;;5077882;28;20457;-60
2022/04/22 11:50:22;;;;;;;10.10;9.20;;;19.20;99.90;;;;;;5077636;28;20488;-60
2022/04/22 11:52:56;;;;;;;11.40;9.07;;;18.70;99.90;;;;;;5075371;28;20894;-58
2022/04/22 11:55:23;;;;;;;11.23;10.27;;;17.60;99.90;;;;;;5076879;28;20858;-59
2022/04/22 11:57:56;;;;;;;11.80;10.37;;;16.80;99.90;;;;;;5073465;28;20560;-60
2022/04/22 12:06:05;;;;;;;11.23;10.33;;;17.70;99.90;;;;;;5076549;28;20904;-58
2022/04/22 12:08:54;;;;;;;11.90;10.77;;;17.40;99.90;;;;;;5077154;28;20520;-58
2022/04/22 12:11:23;;;;;;;10.53;9.67;;;17.10;99.90;;;;;;5069217;28;20461;-59
2022/04/22 12:13:53;;;;;;;11.27;10.37;;;17.80;99.90;;;;;;5077224;28;20461;-58
2022/04/22 12:16:30;;;;;;;11.10;10.20;;;18.60;99.90;;;;;;5075971;28;20511;-59
2022/04/22 12:19:00;;;;;;;11.43;10.43;;;19.20;99.90;;;;;;5076249;28;20461;-60
2022/04/22 12:21:34;;;;;;;11.93;10.83;;;18.40;99.90;;;;;;5077481;28;20538;-60
2022/04/22 12:24:04;;;;;;;11.10;10.20;;;18.50;99.90;;;;;;5076889;28;20539;-59
2022/04/22 12:26:35;;;;;;;10.57;9.47;;;19.10;99.90;;;;;;5075266;28;20511;-59
2022/04/22 12:29:11;;;;;;;10.97;9.87;;;19.00;99.90;;;;;;5076112;28;20519;-60
2022/04/22 12:31:43;;;;;;;10.70;9.90;;;18.70;99.90;;;;;;5075369;28;20520;-58
2022/04/22 12:34:11;;;;;;;10.83;9.83;;;18.80;99.90;;;;;;5075430;28;20485;-59
2022/04/22 12:36:44;;;;;;;10.67;9.60;;;18.80;99.90;;;;;;5074609;28;20507;-60
2022/04/22 12:39:33;;;;;;;12.30;11.10;;;19.30;99.90;;;;;;5077104;28;20472;-59
2022/04/22 12:42:01;;;;;;;12.30;11.10;;;19.40;99.90;;;;;;5076081;28;20462;-60
2022/04/22 12:52:46;;;;;;;11.07;10.00;;;20.00;99.90;;;;;;5079964;28;20440;-60
2022/04/22 12:55:18;;;;;;;11.27;10.33;;;20.10;99.90;;;;;;5080565;28;20911;-60
2022/04/22 12:57:45;;;;;;;11.47;10.47;;;19.70;99.90;;;;;;5079896;28;20457;-60
2022/04/22 13:00:21;;;;;;;9.97;9.10;;;19.40;99.90;;;;;;5080550;28;20528;-60
2022/04/22 13:02:49;;;;;;;10.73;9.73;;;19.00;99.90;;;;;;5079764;28;20461;-59
2022/04/22 13:05:19;;;;;;;12.23;11.23;;;18.70;99.90;;;;;;5079884;28;20461;-59
2022/04/22 13:07:53;;;;;;;11.90;10.80;;;19.20;99.90;;;;;;5079696;28;20507;-60
2022/04/22 13:10:25;;;;;;;12.33;11.13;;;19.80;99.90;;;;;;5079991;28;20555;-60
2022/04/22 13:12:55;;;;;;;14.10;11.47;;;19.50;99.90;;;;;;5079878;28;20457;-60
2022/04/22 13:15:22;;;;;;;10.90;10.00;;;19.70;99.90;;;;;;5080385;28;20461;-60
2022/04/22 13:17:53;;;;;;;10.70;9.77;;;20.20;99.90;;;;;;5080403;28;20472;-60
2022/04/22 13:20:24;;;;;;;12.00;10.90;;;20.10;99.90;;;;;;5079341;28;20488;-59
2022/04/22 13:22:51;;;;;;;11.70;10.70;;;19.80;99.90;;;;;;5079636;28;20457;-60
2022/04/22 13:25:21;;;;;;;13.60;11.93;;;18.90;99.90;;;;;;5079267;28;20461;-60
2022/04/22 13:27:53;;;;;;;12.63;10.80;;;18.20;99.90;;;;;;5079258;28;20885;-60
2022/04/22 13:30:21;;;;;;;10.87;10.00;;;18.70;99.90;;;;;;5078414;28;20896;-60
2022/04/22 13:33:06;;;;;;;12.63;11.17;;;19.10;99.90;;;;;;5078628;28;20901;-60
2022/04/22 13:35:32;;;;;;;11.57;10.47;;;19.10;99.90;;;;;;5079236;28;20534;-60
2022/04/22 13:38:02;;;;;;;12.83;11.70;;;19.40;99.90;;;;;;5079866;28;20522;-60
2022/04/22 13:40:34;;;;;;;11.73;10.73;;;19.30;99.90;;;;;;5078279;28;20584;-60
2022/04/22 13:43:01;;;;;;;9.30;8.60;;;19.00;99.90;;;;;;5075309;28;20497;-59
2022/04/22 13:53:54;;;;;;;11.20;10.20;;;18.50;99.90;;;;;;5078621;28;20464;-59
2022/04/22 13:56:25;;;;;;;11.60;10.57;;;18.70;99.90;;;;;;5058515;28;20502;-58
2022/04/22 13:58:54;;;;;;;11.30;10.30;;;19.20;99.90;;;;;;5059067;28;20497;-59
2022/04/22 14:01:21;;;;;;;11.63;10.57;;;19.20;99.90;;;;;;5069484;28;20524;-59
2022/04/22 14:03:54;;;;;;;10.60;9.70;;;19.30;99.90;;;;;;5079139;28;21028;-59
2022/04/22 14:06:31;;;;;;;12.23;11.17;;;19.30;99.90;;;;;;5078329;28;20439;-59
2022/04/22 14:09:01;;;;;;;10.70;9.80;;;18.80;99.90;;;;;;5078869;28;20471;-59
2022/04/22 14:11:31;;;;;;;11.60;10.50;;;18.10;99.90;;;;;;5078304;28;20457;-60
2022/04/22 14:14:01;;;;;;;12.53;11.53;;;18.10;99.90;;;;;;5079326;28;20467;-60
2022/04/22 14:16:36;;;;;;;12.87;11.87;;;18.10;99.90;;;;;;5076756;28;20508;-59
2022/04/22 14:19:03;;;;;;;12.20;11.13;;;18.10;99.90;;;;;;5075806;28;20479;-60
2022/04/22 14:21:32;;;;;;;13.07;11.87;;;18.50;99.90;;;;;;5077019;28;20522;-59
2022/04/22 14:24:02;;;;;;;14.30;13.10;;;18.80;99.90;;;;;;5058677;28;20477;-59